Time;durP1;ratioP1;P1;durP2;ratioP2;P2;SDS_P1;SDS_P2;PMS_P1;PMS_P2;Temp;Humidity;BMP_temperature;BMP_pressure;BME280_temperature;BME280_humidity;BME280_pressure;Samples;Min_cycle;Max_cycle;Signal;HPM_P1;HPM_P2
2021/03/19 00:01:22;;;;;;;27.95;26.08;;;3.30;82.80;;;;;;5093298;28;20195;-76
2021/03/19 00:03:50;;;;;;;28.13;26.15;;;3.20;83.90;;;;;;5093298;28;20198;-77
2021/03/19 00:06:16;;;;;;;27.10;25.30;;;3.30;83.70;;;;;;5093087;28;20241;-77
2021/03/19 00:08:42;;;;;;;26.55;24.75;;;3.20;84.10;;;;;;5093158;28;20219;-76
2021/03/19 00:11:09;;;;;;;25.75;24.05;;;3.00;84.90;;;;;;5093112;28;20720;-76
2021/03/19 00:13:35;;;;;;;25.40;23.60;;;2.90;85.70;;;;;;5092831;28;21332;-77
2021/03/19 00:16:02;;;;;;;24.50;22.95;;;2.90;86.00;;;;;;5092872;28;20218;-77
2021/03/19 00:18:28;;;;;;;24.73;23.23;;;2.90;86.20;;;;;;5093098;28;20240;-76
2021/03/19 00:20:56;;;;;;;26.00;24.33;;;2.90;86.10;;;;;;5093086;28;20213;-77
2021/03/19 00:23:22;;;;;;;26.50;24.60;;;2.90;86.00;;;;;;5092893;28;20231;-76
2021/03/19 00:25:49;;;;;;;71.68;28.13;;;2.90;86.40;;;;;;5092643;28;20771;-77
2021/03/19 00:28:15;;;;;;;24.95;23.15;;;2.90;88.00;;;;;;5092937;28;20357;-77
2021/03/19 00:30:43;;;;;;;26.73;24.73;;;3.00;87.60;;;;;;5093014;28;20279;-76
2021/03/19 00:33:09;;;;;;;24.45;22.85;;;3.00;86.80;;;;;;5092883;28;20656;-76
2021/03/19 00:35:36;;;;;;;24.45;22.85;;;3.00;87.10;;;;;;5092743;28;20268;-77
2021/03/19 00:38:04;;;;;;;24.90;23.40;;;3.00;87.60;;;;;;5092788;28;20656;-77
2021/03/19 00:40:32;;;;;;;24.13;22.48;;;3.20;87.20;;;;;;5092636;28;20226;-76
2021/03/19 00:42:59;;;;;;;26.08;23.95;;;3.20;86.50;;;;;;5092606;28;20199;-77
2021/03/19 00:45:26;;;;;;;25.42;23.52;;;3.20;86.50;;;;;;5092793;28;20242;-77
2021/03/19 00:47:54;;;;;;;25.35;23.55;;;3.20;86.70;;;;;;5092829;28;20202;-78
2021/03/19 00:50:23;;;;;;;25.75;24.00;;;3.40;86.60;;;;;;5092660;28;20237;-77
2021/03/19 00:52:50;;;;;;;69.90;29.48;;;3.40;86.10;;;;;;5092338;28;20614;-77
2021/03/19 00:55:17;;;;;;;23.77;22.17;;;3.50;86.40;;;;;;5092583;28;20191;-77
2021/03/19 00:57:44;;;;;;;24.48;22.70;;;3.40;91.10;;;;;;5092313;28;20191;-76
2021/03/19 01:00:13;;;;;;;24.02;22.42;;;3.40;89.30;;;;;;5092541;28;20215;-76
2021/03/19 01:02:39;;;;;;;25.08;23.17;;;3.40;88.30;;;;;;5092553;28;20199;-77
2021/03/19 01:05:07;;;;;;;24.50;22.83;;;3.40;87.80;;;;;;5092518;28;20215;-76
2021/03/19 01:07:34;;;;;;;24.60;22.92;;;3.40;87.40;;;;;;5092487;28;20208;-77
2021/03/19 01:10:00;;;;;;;26.33;23.17;;;3.40;89.60;;;;;;5092509;28;20219;-77
2021/03/19 01:12:27;;;;;;;1970.00;261.00;;;3.40;89.00;;;;;;5092564;28;20203;-76
2021/03/19 01:14:54;;;;;;;990.20;140.38;;;3.50;94.80;;;;;;5092460;28;20187;-76
2021/03/19 01:17:20;;;;;;;24.13;22.33;;;3.50;94.10;;;;;;5092312;28;20196;-76
2021/03/19 01:19:48;;;;;;;23.90;22.40;;;3.40;92.90;;;;;;5092378;28;20306;-76
2021/03/19 01:22:14;;;;;;;24.10;22.15;;;3.40;91.10;;;;;;5092362;28;20200;-77
2021/03/19 01:24:41;;;;;;;24.00;22.23;;;3.40;90.50;;;;;;5092302;28;20287;-76
2021/03/19 01:27:07;;;;;;;67.82;27.85;;;3.30;88.60;;;;;;5094577;28;20311;-76
2021/03/19 01:29:35;;;;;;;23.33;21.88;;;3.20;89.40;;;;;;5096236;28;20619;-76
2021/03/19 01:32:01;;;;;;;23.20;21.80;;;3.20;89.20;;;;;;5096284;28;20192;-76
2021/03/19 01:34:28;;;;;;;23.70;22.30;;;3.20;88.20;;;;;;5096272;28;20206;-77
2021/03/19 01:36:54;;;;;;;23.67;21.75;;;3.30;87.90;;;;;;5095897;28;20252;-77
2021/03/19 01:39:20;;;;;;;24.00;22.55;;;3.20;90.90;;;;;;5096149;28;20238;-77
2021/03/19 01:41:47;;;;;;;25.20;23.63;;;3.20;88.80;;;;;;5096150;28;20203;-77
2021/03/19 01:44:15;;;;;;;23.50;22.00;;;3.10;88.70;;;;;;5095978;28;20211;-77
2021/03/19 01:47:18;;;;;;;24.60;23.02;;;3.10;88.50;;;;;;5095685;28;20212;-76
2021/03/19 01:50:17;;;;;;;24.58;23.02;;;3.10;88.20;;;;;;5095828;28;20553;-76
2021/03/19 01:53:21;;;;;;;25.80;23.90;;;3.00;88.00;;;;;;5069763;28;20380;-76
2021/03/19 01:56:24;;;;;;;25.92;24.10;;;3.00;88.00;;;;;;5095400;28;20652;-77
2021/03/19 01:59:28;;;;;;;25.80;24.15;;;2.90;88.20;;;;;;5095771;28;20222;-76
2021/03/19 02:02:31;;;;;;;25.50;23.80;;;2.80;88.40;;;;;;5095726;28;20199;-78
2021/03/19 02:05:35;;;;;;;26.10;24.20;;;2.70;88.60;;;;;;5095498;28;20219;-76
2021/03/19 02:08:38;;;;;;;25.02;23.25;;;2.70;88.60;;;;;;5095575;28;20194;-77
2021/03/19 02:11:42;;;;;;;43.75;27.45;;;2.70;88.80;;;;;;5095512;28;20206;-76
2021/03/19 02:14:45;;;;;;;28.25;26.15;;;2.70;90.00;;;;;;5095446;28;20545;-76
2021/03/19 02:17:49;;;;;;;115.15;32.92;;;2.60;91.60;;;;;;5095300;28;20194;-76
2021/03/19 02:20:53;;;;;;;27.50;25.30;;;2.60;91.40;;;;;;5095147;28;20245;-77
2021/03/19 02:23:56;;;;;;;26.45;24.65;;;2.60;90.40;;;;;;5095327;28;20191;-76
2021/03/19 02:27:00;;;;;;;26.38;24.48;;;2.50;90.10;;;;;;5094969;28;20579;-77
2021/03/19 02:30:03;;;;;;;25.90;24.20;;;2.40;90.20;;;;;;5095071;28;20225;-77
2021/03/19 02:32:31;;;;;;;44.85;26.88;;;2.30;90.20;;;;;;5095078;28;20204;-76
2021/03/19 02:35:01;;;;;;;40.85;26.05;;;2.40;93.50;;;;;;5094953;28;20196;-77
2021/03/19 02:37:32;;;;;;;27.30;25.10;;;2.30;93.30;;;;;;5094436;28;20256;-77
2021/03/19 02:39:58;;;;;;;25.60;23.90;;;2.40;93.90;;;;;;5094963;28;20222;-78
2021/03/19 02:42:28;;;;;;;26.52;24.75;;;2.40;92.30;;;;;;5094881;28;20230;-76
2021/03/19 02:44:55;;;;;;;27.50;25.35;;;2.40;92.10;;;;;;5094755;28;20226;-76
2021/03/19 02:47:21;;;;;;;26.83;24.90;;;2.40;91.60;;;;;;5094742;28;20191;-77
2021/03/19 02:49:49;;;;;;;27.63;25.55;;;2.30;91.50;;;;;;5094644;28;20223;-77
2021/03/19 02:52:17;;;;;;;26.90;24.70;;;2.40;91.00;;;;;;5094288;28;20201;-77
2021/03/19 02:54:43;;;;;;;26.83;24.92;;;2.40;90.80;;;;;;5094634;28;20297;-76
2021/03/19 02:57:09;;;;;;;28.08;25.20;;;2.50;94.40;;;;;;5094266;28;20198;-77
2021/03/19 02:59:36;;;;;;;25.88;24.05;;;2.50;93.10;;;;;;5094586;28;20222;-77
2021/03/19 03:02:02;;;;;;;26.30;24.60;;;2.60;93.30;;;;;;5094565;28;20195;-76
2021/03/19 03:04:28;;;;;;;26.45;24.55;;;2.60;91.90;;;;;;5094494;28;20201;-76
2021/03/19 03:06:57;;;;;;;27.83;25.73;;;2.70;91.60;;;;;;5094199;28;20242;-77
2021/03/19 03:09:26;;;;;;;27.60;25.70;;;2.50;91.00;;;;;;5094424;28;20215;-76
2021/03/19 03:11:54;;;;;;;26.98;24.88;;;2.50;90.40;;;;;;5094390;28;20209;-76
2021/03/19 03:14:25;;;;;;;27.13;25.15;;;2.60;90.10;;;;;;5094184;28;20205;-78
2021/03/19 03:16:52;;;;;;;27.52;25.60;;;2.70;89.50;;;;;;5093997;28;20234;-76
2021/03/19 03:19:21;;;;;;;28.02;25.92;;;2.70;88.80;;;;;;5094131;28;20221;-76
2021/03/19 03:21:48;;;;;;;27.90;25.92;;;2.70;88.50;;;;;;5094236;28;20195;-76
2021/03/19 03:24:17;;;;;;;29.80;27.60;;;2.70;88.90;;;;;;5094148;28;20202;-77
2021/03/19 03:26:44;;;;;;;122.43;31.38;;;2.70;89.20;;;;;;5093768;28;20306;-76
2021/03/19 03:29:12;;;;;;;26.25;24.27;;;2.70;89.40;;;;;;5093819;28;20247;-76
2021/03/19 03:31:39;;;;;;;28.77;26.45;;;2.70;89.90;;;;;;5093949;28;20191;-77
2021/03/19 03:34:06;;;;;;;28.30;26.20;;;2.70;89.50;;;;;;5094115;28;20195;-77
2021/03/19 03:36:33;;;;;;;28.02;26.00;;;2.80;89.40;;;;;;5093874;28;20283;-77
2021/03/19 03:39:00;;;;;;;147.27;38.95;;;2.90;88.90;;;;;;5093768;28;20688;-76
2021/03/19 03:41:28;;;;;;;191.20;43.78;;;2.90;88.90;;;;;;5093662;28;20196;-76
2021/03/19 03:43:55;;;;;;;1183.93;173.20;;;2.90;92.70;;;;;;5093583;28;20214;-76
2021/03/19 03:46:24;;;;;;;27.10;24.85;;;2.90;96.40;;;;;;5093391;28;20225;-77
2021/03/19 03:48:51;;;;;;;28.27;26.10;;;2.90;96.70;;;;;;5092764;28;20224;-77
2021/03/19 03:51:19;;;;;;;27.15;25.20;;;2.90;95.30;;;;;;5093398;28;20230;-76
2021/03/19 03:53:45;;;;;;;28.02;25.73;;;2.80;93.90;;;;;;5093593;28;20199;-77
2021/03/19 03:56:14;;;;;;;26.08;24.27;;;2.90;93.10;;;;;;5093024;28;20198;-76
2021/03/19 03:58:41;;;;;;;27.35;25.35;;;2.90;92.20;;;;;;5093364;28;20329;-77
2021/03/19 04:01:08;;;;;;;26.65;24.77;;;2.90;91.00;;;;;;5093401;28;20781;-76
2021/03/19 04:03:35;;;;;;;28.70;26.38;;;2.90;90.90;;;;;;5093368;28;20280;-77
2021/03/19 04:06:02;;;;;;;27.13;24.98;;;2.90;90.00;;;;;;5093030;28;20255;-77
2021/03/19 04:08:30;;;;;;;331.10;57.63;;;3.00;89.90;;;;;;5093450;28;20293;-77
2021/03/19 04:10:58;;;;;;;31.92;28.92;;;2.90;90.50;;;;;;5093196;28;20205;-76
2021/03/19 04:13:27;;;;;;;28.23;26.02;;;2.90;91.40;;;;;;5093145;28;20720;-76
2021/03/19 04:15:55;;;;;;;29.63;27.48;;;2.90;90.80;;;;;;5093027;28;20191;-77
2021/03/19 04:18:22;;;;;;;31.33;28.77;;;2.90;90.40;;;;;;5093062;28;20203;-76
2021/03/19 04:20:50;;;;;;;29.70;27.33;;;2.90;89.80;;;;;;5093252;28;20556;-77
2021/03/19 04:23:17;;;;;;;30.70;28.50;;;2.90;88.90;;;;;;5093007;28;20221;-76
2021/03/19 04:25:43;;;;;;;28.35;26.35;;;3.00;88.70;;;;;;5092780;28;20237;-77
2021/03/19 04:28:13;;;;;;;28.65;26.65;;;2.90;87.70;;;;;;5092995;28;20195;-76
2021/03/19 04:30:41;;;;;;;28.90;26.90;;;2.80;87.80;;;;;;5092873;28;20237;-77
2021/03/19 04:33:11;;;;;;;93.65;33.78;;;2.80;89.40;;;;;;5092874;28;20244;-77
2021/03/19 04:35:37;;;;;;;30.25;27.95;;;2.80;91.40;;;;;;5092658;28;20191;-76
2021/03/19 04:38:08;;;;;;;29.02;26.92;;;2.80;90.90;;;;;;5092808;28;20199;-76
2021/03/19 04:40:35;;;;;;;28.67;26.67;;;2.90;90.10;;;;;;5092745;28;20305;-77
2021/03/19 04:43:02;;;;;;;31.40;29.10;;;2.90;89.40;;;;;;5092740;28;20199;-76
2021/03/19 04:45:29;;;;;;;31.15;28.02;;;2.90;88.70;;;;;;5092485;28;20219;-77
2021/03/19 04:47:55;;;;;;;30.98;28.40;;;2.80;90.50;;;;;;5092674;28;20209;-76
2021/03/19 04:50:24;;;;;;;30.38;27.70;;;2.80;92.30;;;;;;5092645;28;20289;-76
2021/03/19 04:52:50;;;;;;;28.55;26.42;;;2.80;91.80;;;;;;5092267;28;20577;-76
2021/03/19 04:55:18;;;;;;;839.60;123.80;;;2.90;91.00;;;;;;5092760;28;20357;-77
2021/03/19 04:57:44;;;;;;;29.13;26.73;;;2.90;96.30;;;;;;5092296;28;20195;-76
2021/03/19 05:00:13;;;;;;;31.98;29.42;;;2.90;94.20;;;;;;5093560;28;20361;-76
2021/03/19 05:02:43;;;;;;;28.98;26.88;;;2.80;92.30;;;;;;5096670;28;20675;-76
2021/03/19 05:05:13;;;;;;;29.30;27.00;;;2.80;91.30;;;;;;5096588;28;20656;-76
2021/03/19 05:07:40;;;;;;;29.13;27.13;;;2.90;91.00;;;;;;5096488;28;20282;-76
2021/03/19 05:10:08;;;;;;;29.35;27.05;;;2.90;90.90;;;;;;5096620;28;20247;-76
2021/03/19 05:12:35;;;;;;;27.90;25.90;;;2.90;89.90;;;;;;5096653;28;20203;-76
2021/03/19 05:15:01;;;;;;;29.02;26.92;;;3.00;89.80;;;;;;5096713;28;20287;-76
2021/03/19 05:17:30;;;;;;;28.30;26.20;;;3.00;89.10;;;;;;5096344;28;20202;-76
2021/03/19 05:19:57;;;;;;;29.20;27.10;;;3.00;88.50;;;;;;5096593;28;20231;-77
2021/03/19 05:22:24;;;;;;;30.33;27.98;;;3.10;87.80;;;;;;5096494;28;20195;-76
2021/03/19 05:24:51;;;;;;;29.20;27.05;;;3.10;87.20;;;;;;5096360;28;20278;-76
2021/03/19 05:27:17;;;;;;;30.42;28.23;;;3.10;87.10;;;;;;5096164;28;20537;-76
2021/03/19 05:29:44;;;;;;;30.40;28.10;;;3.00;87.10;;;;;;5096066;28;20229;-77
2021/03/19 05:32:11;;;;;;;30.08;27.48;;;3.00;87.50;;;;;;5096236;28;20202;-77
2021/03/19 05:34:37;;;;;;;28.75;26.65;;;3.00;87.40;;;;;;5096287;28;20207;-76
2021/03/19 05:37:04;;;;;;;30.33;28.05;;;3.10;89.10;;;;;;5095871;28;20195;-76
2021/03/19 05:39:31;;;;;;;29.90;27.80;;;3.10;87.80;;;;;;5095946;28;20294;-76
2021/03/19 05:41:58;;;;;;;30.63;28.40;;;3.20;86.70;;;;;;5096063;28;20759;-77
2021/03/19 05:44:27;;;;;;;29.85;27.65;;;3.20;86.40;;;;;;5095931;28;20207;-77
2021/03/19 05:47:00;;;;;;;32.03;29.73;;;3.00;86.30;;;;;;5095635;28;20708;-77
2021/03/19 05:49:28;;;;;;;31.45;29.27;;;3.00;86.70;;;;;;5095842;28;20246;-77
2021/03/19 05:51:56;;;;;;;31.40;29.13;;;2.90;86.90;;;;;;5095446;28;20211;-77
2021/03/19 05:54:26;;;;;;;30.92;28.73;;;2.90;87.10;;;;;;5095920;28;20260;-76
2021/03/19 05:57:12;;;;;;;31.83;29.58;;;2.90;86.80;;;;;;5095755;28;20194;-77
2021/03/19 05:59:43;;;;;;;33.53;30.90;;;2.80;87.60;;;;;;5095646;28;20223;-76
2021/03/19 06:02:20;;;;;;;31.50;29.10;;;2.90;86.90;;;;;;5095818;28;20260;-76
2021/03/19 06:05:05;;;;;;;32.95;30.65;;;2.90;86.50;;;;;;5095837;28;20194;-76
2021/03/19 06:07:41;;;;;;;30.38;27.98;;;2.90;86.60;;;;;;5095406;28;20203;-77
2021/03/19 06:10:29;;;;;;;32.50;30.13;;;3.00;86.40;;;;;;5095439;28;20256;-77
2021/03/19 06:13:11;;;;;;;32.72;30.42;;;2.90;86.20;;;;;;5094776;28;20199;-76
2021/03/19 06:15:40;;;;;;;37.58;33.88;;;3.00;86.40;;;;;;5095234;28;20661;-76
2021/03/19 06:18:17;;;;;;;32.63;30.23;;;2.90;85.70;;;;;;5095373;28;20199;-77
2021/03/19 06:20:55;;;;;;;30.85;28.35;;;3.00;85.80;;;;;;5095358;28;20656;-77
2021/03/19 06:23:25;;;;;;;33.33;30.85;;;2.90;86.00;;;;;;5095363;28;20201;-76
2021/03/19 06:26:03;;;;;;;31.10;28.75;;;2.80;86.70;;;;;;5095024;28;20225;-77
2021/03/19 06:28:33;;;;;;;30.90;28.30;;;2.80;87.20;;;;;;5095175;28;20206;-76
2021/03/19 06:31:23;;;;;;;33.60;31.00;;;3.00;87.30;;;;;;5095339;28;20194;-77
2021/03/19 06:34:05;;;;;;;32.25;29.73;;;2.90;87.20;;;;;;5095112;28;20203;-76
2021/03/19 06:36:33;;;;;;;31.83;29.23;;;2.90;87.70;;;;;;5094840;28;20191;-76
2021/03/19 06:39:14;;;;;;;31.52;28.88;;;2.90;87.90;;;;;;5094829;28;20287;-77
2021/03/19 06:41:41;;;;;;;33.85;30.67;;;2.80;88.70;;;;;;5094900;28;20194;-76
2021/03/19 06:44:20;;;;;;;33.50;30.80;;;2.90;89.00;;;;;;5094759;28;20212;-77
2021/03/19 06:46:51;;;;;;;34.53;31.65;;;2.80;88.80;;;;;;5094580;28;20229;-76
2021/03/19 06:49:18;;;;;;;34.90;31.80;;;2.90;89.10;;;;;;5094739;28;20254;-77
2021/03/19 06:51:47;;;;;;;32.97;30.48;;;2.90;88.80;;;;;;5094608;28;20290;-77
2021/03/19 06:54:15;;;;;;;33.33;30.63;;;2.80;88.80;;;;;;5094815;28;20191;-76
2021/03/19 06:57:01;;;;;;;34.40;31.73;;;2.80;89.50;;;;;;5094264;28;20777;-76
2021/03/19 06:59:38;;;;;;;34.17;31.58;;;2.70;89.50;;;;;;5094446;28;20276;-76
2021/03/19 07:02:33;;;;;;;33.75;30.83;;;2.80;89.50;;;;;;5094602;28;20205;-76
2021/03/19 07:05:02;;;;;;;36.88;33.08;;;2.80;89.40;;;;;;5092087;28;20203;-76
2021/03/19 07:07:50;;;;;;;35.72;32.80;;;3.00;89.20;;;;;;5094563;28;20282;-76
2021/03/19 07:10:28;;;;;;;34.80;32.10;;;3.10;89.70;;;;;;5094295;28;20226;-76
2021/03/19 07:13:03;;;;;;;37.28;33.60;;;3.00;89.00;;;;;;5094370;28;20198;-77
2021/03/19 07:15:40;;;;;;;34.60;31.50;;;3.00;89.20;;;;;;5094191;28;20195;-76
2021/03/19 07:18:17;;;;;;;35.55;32.75;;;3.10;89.30;;;;;;5094169;28;20217;-76
2021/03/19 07:21:26;;;;;;;35.67;32.47;;;3.00;89.00;;;;;;5094118;28;20198;-77
2021/03/19 07:24:09;;;;;;;35.97;32.75;;;3.20;89.50;;;;;;5093109;28;20206;-76
2021/03/19 07:26:38;;;;;;;38.22;35.30;;;3.40;88.20;;;;;;5093885;28;20215;-77
2021/03/19 07:29:27;;;;;;;36.42;33.30;;;3.30;87.20;;;;;;5093880;28;20321;-76
2021/03/19 07:32:26;;;;;;;36.75;33.75;;;3.20;87.90;;;;;;5085671;28;20209;-76
2021/03/19 07:35:00;;;;;;;37.00;34.00;;;3.30;87.90;;;;;;5094204;28;20217;-77
2021/03/19 07:37:59;;;;;;;36.50;33.28;;;3.30;87.80;;;;;;5093692;28;20194;-76
2021/03/19 07:40:52;;;;;;;36.47;33.30;;;3.30;87.90;;;;;;5045605;28;20257;-76
2021/03/19 07:43:50;;;;;;;37.90;34.15;;;3.30;87.60;;;;;;5093554;28;20207;-76
2021/03/19 07:46:28;;;;;;;35.83;32.92;;;3.30;89.10;;;;;;5093518;28;20219;-76
2021/03/19 07:49:25;;;;;;;35.83;32.60;;;3.30;88.50;;;;;;5093625;28;20226;-77
2021/03/19 07:52:01;;;;;;;35.70;32.67;;;3.60;90.00;;;;;;5093197;28;20199;-77
2021/03/19 07:54:38;;;;;;;37.03;34.00;;;3.70;88.50;;;;;;5093554;28;20591;-76
2021/03/19 07:57:11;;;;;;;36.22;32.92;;;3.80;88.20;;;;;;5093136;28;20244;-76
2021/03/19 07:59:49;;;;;;;34.70;31.60;;;3.90;87.30;;;;;;5093258;28;20223;-76
2021/03/19 08:02:49;;;;;;;35.45;32.38;;;3.80;86.70;;;;;;5093283;28;20203;-76
2021/03/19 08:05:22;;;;;;;35.70;32.90;;;3.80;87.10;;;;;;5093137;28;20664;-77
2021/03/19 08:07:57;;;;;;;33.85;31.15;;;4.00;87.00;;;;;;5093222;28;20230;-76
2021/03/19 08:10:27;;;;;;;30.40;28.10;;;4.00;86.30;;;;;;5093086;28;20215;-77
2021/03/19 08:13:01;;;;;;;34.15;31.25;;;3.90;86.40;;;;;;5093259;28;20237;-76
2021/03/19 08:15:36;;;;;;;32.83;30.38;;;3.90;86.50;;;;;;5093157;28;20667;-77
2021/03/19 08:18:12;;;;;;;34.15;30.67;;;4.00;86.10;;;;;;5093245;28;20202;-76
2021/03/19 08:20:59;;;;;;;32.13;29.67;;;4.00;86.80;;;;;;5092944;28;20219;-77
2021/03/19 08:23:36;;;;;;;34.42;31.17;;;4.10;85.90;;;;;;5059373;28;20199;-76
2021/03/19 08:26:03;;;;;;;30.00;27.60;;;4.10;85.80;;;;;;5092882;28;20214;-77
2021/03/19 08:28:37;;;;;;;30.35;27.95;;;3.90;86.30;;;;;;5092935;28;20614;-77
2021/03/19 08:31:16;;;;;;;29.73;27.48;;;3.80;86.10;;;;;;5092951;28;20260;-76
2021/03/19 08:33:58;;;;;;;31.75;29.45;;;3.70;86.30;;;;;;5092942;28;20268;-76
2021/03/19 08:36:33;;;;;;;30.42;27.80;;;3.50;87.50;;;;;;5092333;28;20191;-77
2021/03/19 08:39:04;;;;;;;30.38;27.83;;;3.40;88.30;;;;;;5092776;28;20231;-77
2021/03/19 08:41:36;;;;;;;30.02;27.58;;;3.50;87.60;;;;;;5092745;28;20647;-76
2021/03/19 08:44:06;;;;;;;29.42;27.23;;;3.50;87.90;;;;;;5092743;28;20275;-77
2021/03/19 08:46:41;;;;;;;30.98;28.38;;;3.40;87.40;;;;;;5092609;28;20222;-77
2021/03/19 08:49:16;;;;;;;29.60;27.17;;;3.50;88.10;;;;;;5092720;28;20580;-77
2021/03/19 08:51:46;;;;;;;31.90;29.30;;;3.60;87.70;;;;;;5092522;28;20285;-76
2021/03/19 08:54:26;;;;;;;31.60;29.15;;;3.40;88.10;;;;;;5092743;28;20201;-76
2021/03/19 08:56:54;;;;;;;31.90;29.42;;;3.50;88.50;;;;;;5092221;28;20187;-76
2021/03/19 08:59:48;;;;;;;33.17;30.40;;;3.50;88.30;;;;;;5092614;28;20234;-77
2021/03/19 09:02:53;;;;;;;31.83;29.20;;;3.50;89.40;;;;;;5092604;28;20664;-76
2021/03/19 09:05:32;;;;;;;33.38;30.38;;;3.60;88.70;;;;;;5092566;28;20289;-76
2021/03/19 09:08:23;;;;;;;32.08;29.30;;;3.60;89.40;;;;;;5092589;28;20202;-77
2021/03/19 09:11:05;;;;;;;31.08;28.48;;;3.80;89.00;;;;;;5092518;28;20199;-77
2021/03/19 09:13:32;;;;;;;33.67;30.98;;;3.80;87.50;;;;;;5092574;28;20630;-76
2021/03/19 09:16:37;;;;;;;31.63;29.08;;;3.80;88.00;;;;;;5092482;28;20311;-76
2021/03/19 09:19:42;;;;;;;32.30;29.70;;;3.70;87.90;;;;;;5092188;28;20376;-76
2021/03/19 09:22:33;;;;;;;30.35;27.95;;;3.80;88.30;;;;;;5092466;28;20195;-77
2021/03/19 09:25:32;;;;;;;31.25;28.85;;;3.80;86.80;;;;;;5092478;28;20242;-76
2021/03/19 09:28:31;;;;;;;30.95;28.58;;;3.90;85.80;;;;;;5092274;28;20202;-76
2021/03/19 09:31:01;;;;;;;32.22;29.63;;;4.10;85.30;;;;;;5092206;28;20213;-76
2021/03/19 09:34:00;;;;;;;31.10;28.67;;;4.20;84.30;;;;;;5092321;28;20286;-77
2021/03/19 09:36:50;;;;;;;32.72;30.02;;;4.30;84.00;;;;;;5092139;28;20248;-77
2021/03/19 09:39:54;;;;;;;29.50;27.35;;;4.40;82.40;;;;;;5092289;28;20219;-76
2021/03/19 09:42:54;;;;;;;31.45;28.95;;;4.40;80.40;;;;;;5092105;28;20759;-77
2021/03/19 09:45:48;;;;;;;30.85;28.75;;;4.40;81.90;;;;;;5092112;28;20191;-76
2021/03/19 09:48:30;;;;;;;30.15;27.70;;;4.50;81.70;;;;;;5094678;28;20263;-77
2021/03/19 09:51:27;;;;;;;32.00;29.50;;;4.40;81.90;;;;;;5095633;28;20564;-77
2021/03/19 09:53:53;;;;;;;30.90;28.65;;;4.60;80.90;;;;;;5095821;28;20199;-77
2021/03/19 09:56:27;;;;;;;31.13;28.77;;;4.50;82.50;;;;;;5095579;28;20198;-77
2021/03/19 09:58:56;;;;;;;32.33;29.83;;;4.80;80.90;;;;;;5095660;28;20716;-77
2021/03/19 10:01:39;;;;;;;29.85;27.75;;;5.00;80.00;;;;;;5095854;28;20196;-77
2021/03/19 10:04:08;;;;;;;32.35;30.02;;;5.30;77.60;;;;;;5095855;28;20215;-77
2021/03/19 10:06:36;;;;;;;32.33;30.00;;;5.60;75.60;;;;;;5095286;28;20224;-76
2021/03/19 10:09:06;;;;;;;32.50;30.20;;;5.80;75.10;;;;;;5095473;28;20326;-77
2021/03/19 10:11:33;;;;;;;32.75;30.35;;;5.90;74.80;;;;;;5095513;28;20214;-77
2021/03/19 10:14:13;;;;;;;33.30;30.98;;;6.10;74.40;;;;;;5095497;28;20270;-77
2021/03/19 10:16:40;;;;;;;32.40;30.10;;;5.90;75.30;;;;;;5095217;28;20191;-77
2021/03/19 10:19:12;;;;;;;31.85;29.75;;;5.70;75.50;;;;;;5095243;28;20220;-77
2021/03/19 10:21:46;;;;;;;32.75;30.48;;;5.80;73.90;;;;;;5095260;28;20196;-77
2021/03/19 10:24:13;;;;;;;33.15;30.85;;;5.70;75.00;;;;;;5095245;28;20204;-77
2021/03/19 10:26:50;;;;;;;31.20;29.20;;;5.70;75.30;;;;;;5094963;28;20222;-77
2021/03/19 10:29:18;;;;;;;30.80;28.70;;;5.60;74.60;;;;;;5095102;28;20237;-77
2021/03/19 10:31:49;;;;;;;31.05;29.15;;;5.60;73.90;;;;;;5095146;28;20288;-76
2021/03/19 10:34:26;;;;;;;30.83;28.63;;;5.70;73.20;;;;;;5095168;28;20250;-77
2021/03/19 10:36:55;;;;;;;31.70;29.40;;;5.40;74.50;;;;;;5094914;28;20530;-77
2021/03/19 10:39:32;;;;;;;31.88;29.42;;;5.30;76.40;;;;;;5094960;28;20211;-77
2021/03/19 10:42:21;;;;;;;31.25;29.15;;;5.30;77.20;;;;;;5095248;28;20225;-77
2021/03/19 10:45:18;;;;;;;31.00;28.90;;;5.00;78.60;;;;;;5094853;28;20295;-76
2021/03/19 10:47:50;;;;;;;32.53;30.05;;;4.70;80.70;;;;;;5094731;28;20206;-76
2021/03/19 10:50:21;;;;;;;29.98;27.80;;;4.60;81.70;;;;;;5094752;28;20219;-76
2021/03/19 10:52:55;;;;;;;29.80;27.50;;;4.90;81.50;;;;;;5094337;28;20199;-76
2021/03/19 10:55:27;;;;;;;31.00;28.75;;;5.10;82.50;;;;;;5094711;28;20204;-76
2021/03/19 10:58:32;;;;;;;28.67;26.58;;;5.70;80.90;;;;;;5094282;28;20225;-76
2021/03/19 11:00:58;;;;;;;30.92;28.73;;;6.00;83.50;;;;;;5094486;28;20201;-76
2021/03/19 11:03:38;;;;;;;30.92;28.70;;;6.00;79.50;;;;;;5094478;28;20202;-76
2021/03/19 11:06:07;;;;;;;29.17;27.17;;;6.00;80.90;;;;;;5094295;28;20215;-77
2021/03/19 11:08:34;;;;;;;29.15;27.20;;;6.00;78.20;;;;;;5094395;28;20195;-76
2021/03/19 11:11:00;;;;;;;29.45;27.38;;;6.00;77.40;;;;;;5094459;28;20569;-77
2021/03/19 11:13:29;;;;;;;28.50;26.60;;;5.80;77.70;;;;;;5094318;28;20289;-76
2021/03/19 11:15:59;;;;;;;26.70;24.83;;;5.80;77.30;;;;;;5094129;28;20202;-76
2021/03/19 11:18:31;;;;;;;26.38;24.58;;;5.70;75.50;;;;;;5094224;28;20272;-76
2021/03/19 11:21:01;;;;;;;27.40;25.73;;;5.60;75.70;;;;;;5094182;28;20672;-76
2021/03/19 11:23:32;;;;;;;27.20;25.60;;;5.50;77.30;;;;;;5094101;28;20242;-77
2021/03/19 11:25:59;;;;;;;25.13;23.67;;;5.40;77.10;;;;;;5093872;28;20305;-76
2021/03/19 11:28:39;;;;;;;24.30;23.00;;;5.00;78.10;;;;;;5094001;28;20253;-76
2021/03/19 11:31:22;;;;;;;26.35;24.80;;;5.00;77.90;;;;;;5094046;28;20206;-77
2021/03/19 11:34:00;;;;;;;25.08;23.60;;;5.00;78.20;;;;;;5093971;28;20199;-76
2021/03/19 11:36:28;;;;;;;25.17;23.67;;;5.00;78.40;;;;;;5093807;28;20286;-76
2021/03/19 11:39:09;;;;;;;24.70;23.33;;;5.10;77.80;;;;;;5093770;28;20218;-76
2021/03/19 11:41:40;;;;;;;24.83;23.50;;;5.20;77.80;;;;;;5093909;28;20222;-76
2021/03/19 11:44:07;;;;;;;26.95;25.23;;;5.00;78.40;;;;;;5093677;28;20272;-77
2021/03/19 11:46:34;;;;;;;25.30;23.80;;;5.30;77.60;;;;;;5093452;28;20323;-76
2021/03/19 11:49:01;;;;;;;24.55;23.15;;;5.20;76.60;;;;;;5093404;28;20215;-76
2021/03/19 11:51:31;;;;;;;25.80;24.20;;;5.30;75.00;;;;;;5093177;28;20200;-77
2021/03/19 11:53:58;;;;;;;25.23;23.75;;;5.20;74.40;;;;;;5093304;28;20195;-76
2021/03/19 11:56:26;;;;;;;25.73;24.13;;;5.00;75.50;;;;;;5093090;28;20294;-76
2021/03/19 11:58:53;;;;;;;25.92;24.33;;;5.10;75.20;;;;;;5093169;28;20215;-77
2021/03/19 12:01:19;;;;;;;25.83;24.13;;;5.00;75.70;;;;;;5093328;28;20195;-76
2021/03/19 12:03:48;;;;;;;25.75;24.15;;;4.60;76.70;;;;;;5093237;28;20654;-76
2021/03/19 12:06:18;;;;;;;27.15;25.40;;;4.50;78.20;;;;;;5093116;28;20252;-76
2021/03/19 12:08:46;;;;;;;29.55;27.55;;;4.70;78.10;;;;;;5093097;28;20215;-76
2021/03/19 12:11:17;;;;;;;28.83;26.92;;;4.90;77.20;;;;;;5092781;28;20191;-76
2021/03/19 12:13:43;;;;;;;29.85;27.77;;;4.80;76.20;;;;;;5093322;28;20316;-77
2021/03/19 12:16:10;;;;;;;28.70;26.75;;;4.70;76.10;;;;;;5093033;28;20218;-77
2021/03/19 12:18:36;;;;;;;28.80;26.95;;;4.70;76.50;;;;;;5092991;28;20198;-76
2021/03/19 12:21:02;;;;;;;29.73;27.63;;;4.90;75.70;;;;;;5093235;28;20319;-77
2021/03/19 12:23:30;;;;;;;28.38;26.48;;;4.90;74.20;;;;;;5093172;28;20251;-77
2021/03/19 12:25:57;;;;;;;30.42;28.27;;;4.90;73.80;;;;;;5092890;28;20221;-77
2021/03/19 12:28:24;;;;;;;28.80;26.80;;;4.70;74.70;;;;;;5093489;28;20199;-77
2021/03/19 12:30:52;;;;;;;29.60;27.58;;;4.50;75.30;;;;;;5093673;28;20195;-77
2021/03/19 12:33:19;;;;;;;31.08;29.08;;;4.30;75.90;;;;;;5092918;28;20289;-77
2021/03/19 12:35:45;;;;;;;30.30;28.40;;;4.20;75.90;;;;;;5092889;28;20614;-77
2021/03/19 12:38:14;;;;;;;30.05;27.95;;;4.20;76.50;;;;;;5093239;28;20195;-76
2021/03/19 12:40:41;;;;;;;29.17;27.17;;;4.30;77.50;;;;;;5092832;28;20247;-77
2021/03/19 12:43:09;;;;;;;32.17;29.95;;;4.40;78.50;;;;;;5092721;28;20660;-77
2021/03/19 12:45:36;;;;;;;30.98;28.77;;;4.40;77.40;;;;;;5092732;28;20209;-77
2021/03/19 12:48:03;;;;;;;30.35;28.15;;;4.50;76.90;;;;;;5092934;28;20194;-77
2021/03/19 12:50:29;;;;;;;32.00;29.50;;;4.40;77.70;;;;;;5092741;28;20221;-77
2021/03/19 12:52:56;;;;;;;33.25;30.65;;;4.20;78.80;;;;;;5092368;28;20198;-76
2021/03/19 12:55:23;;;;;;;33.40;30.88;;;4.00;80.20;;;;;;5092632;28;20290;-76
2021/03/19 12:57:50;;;;;;;34.60;31.70;;;4.00;80.60;;;;;;5092170;28;20667;-76
2021/03/19 13:00:19;;;;;;;33.88;30.92;;;3.90;81.60;;;;;;5092486;28;20211;-76
2021/03/19 13:02:46;;;;;;;33.58;30.98;;;3.70;82.20;;;;;;5092500;28;20199;-77
2021/03/19 13:05:14;;;;;;;36.03;33.08;;;3.70;82.30;;;;;;5092534;28;20322;-77
2021/03/19 13:07:41;;;;;;;32.33;29.73;;;3.70;83.10;;;;;;5092290;28;20297;-76
2021/03/19 13:10:09;;;;;;;33.63;30.88;;;3.70;82.70;;;;;;5092308;28;20214;-77